Terminal Aerodrome Forecast
Issued by NWS

Home | Current Version | Previous Version | Text Only | Print | Product List | Glossary On
Versions: 1 2 3 4 5 6 7 8 9 10 11 12 13 14 15 16 17 18 19
000
FTUS46 KSEW 192300
TAFHQM
TAF
KHQM 192320Z 2000/2024 24015G25KT P6SM -SHRA BKN035 OVC050
      TEMPO 2000/2003 3SM -SHRA BR BKN025
     FM200400 22013KT P6SM VCSH BKN035 BKN050
     FM201000 12006KT P6SM BKN040 BKN060
     FM202100 19010KT P6SM SCT040 BKN060=

USA.gov is the U.S. government's official web portal to all federal, state and local government web resources and services.